sensor_id;sensor_type;location;lat;lon;timestamp;pressure;altitude;pressure_sealevel;temperature;humidity
13968;BME280;39536;52.198;9.920;2022-08-18T00:01:50;100197.91;;;22.48;68.11
13968;BME280;39536;52.198;9.920;2022-08-18T00:04:20;100196.81;;;22.50;68.06
13968;BME280;39536;52.198;9.920;2022-08-18T00:09:13;100205.41;;;22.43;68.98
13968;BME280;39536;52.198;9.920;2022-08-18T00:11:41;100203.75;;;22.42;68.92
13968;BME280;39536;52.198;9.920;2022-08-18T00:14:11;100193.94;;;22.32;69.19
13968;BME280;39536;52.198;9.920;2022-08-18T00:16:38;100202.19;;;22.39;69.36
13968;BME280;39536;52.198;9.920;2022-08-18T00:19:06;100196.78;;;22.41;69.01
13968;BME280;39536;52.198;9.920;2022-08-18T00:21:33;100183.75;;;22.28;69.98
13968;BME280;39536;52.198;9.920;2022-08-18T00:23:59;100198.56;;;22.09;70.86
13968;BME280;39536;52.198;9.920;2022-08-18T00:26:26;100199.00;;;22.14;70.79
13968;BME280;39536;52.198;9.920;2022-08-18T00:28:52;100203.41;;;22.25;70.73
13968;BME280;39536;52.198;9.920;2022-08-18T00:31:19;100209.47;;;22.37;70.52
13968;BME280;39536;52.198;9.920;2022-08-18T00:33:45;100200.44;;;22.49;69.88
13968;BME280;39536;52.198;9.920;2022-08-18T00:36:13;100199.31;;;22.52;69.35
13968;BME280;39536;52.198;9.920;2022-08-18T00:38:40;100215.47;;;22.39;69.46
13968;BME280;39536;52.198;9.920;2022-08-18T00:41:06;100207.38;;;22.41;69.70
13968;BME280;39536;52.198;9.920;2022-08-18T00:43:36;100209.78;;;22.44;69.68
13968;BME280;39536;52.198;9.920;2022-08-18T00:46:07;100217.75;;;22.44;69.48
13968;BME280;39536;52.198;9.920;2022-08-18T00:48:34;100216.91;;;22.43;69.39
13968;BME280;39536;52.198;9.920;2022-08-18T00:51:04;100215.09;;;22.44;69.68
13968;BME280;39536;52.198;9.920;2022-08-18T00:53:37;100215.63;;;22.38;69.83
13968;BME280;39536;52.198;9.920;2022-08-18T00:56:08;100217.09;;;22.30;69.79
13968;BME280;39536;52.198;9.920;2022-08-18T00:58:38;100218.81;;;22.31;70.15
13968;BME280;39536;52.198;9.920;2022-08-18T01:01:07;100221.53;;;22.20;70.32
13968;BME280;39536;52.198;9.920;2022-08-18T01:03:36;100222.97;;;22.24;70.61
13968;BME280;39536;52.198;9.920;2022-08-18T01:06:08;100221.53;;;22.20;70.64
13968;BME280;39536;52.198;9.920;2022-08-18T01:08:40;100225.47;;;22.26;70.71
13968;BME280;39536;52.198;9.920;2022-08-18T01:11:06;100214.09;;;21.93;71.90
13968;BME280;39536;52.198;9.920;2022-08-18T01:13:34;100217.09;;;22.00;71.81
13968;BME280;39536;52.198;9.920;2022-08-18T01:16:03;100216.81;;;22.03;71.83
13968;BME280;39536;52.198;9.920;2022-08-18T01:18:44;100220.00;;;21.97;72.75
13968;BME280;39536;52.198;9.920;2022-08-18T01:21:30;100216.44;;;21.86;73.08
13968;BME280;39536;52.198;9.920;2022-08-18T01:24:21;100212.31;;;21.94;72.80
13968;BME280;39536;52.198;9.920;2022-08-18T01:27:09;100217.69;;;21.82;73.29
13968;BME280;39536;52.198;9.920;2022-08-18T01:29:35;100214.38;;;21.69;74.13
13968;BME280;39536;52.198;9.920;2022-08-18T01:32:02;100217.50;;;21.53;75.18
13968;BME280;39536;52.198;9.920;2022-08-18T01:34:29;100214.84;;;21.53;75.29
13968;BME280;39536;52.198;9.920;2022-08-18T01:36:56;100222.06;;;21.51;75.38
13968;BME280;39536;52.198;9.920;2022-08-18T01:39:24;100221.31;;;21.60;75.34
13968;BME280;39536;52.198;9.920;2022-08-18T01:41:51;100226.91;;;21.67;75.26
13968;BME280;39536;52.198;9.920;2022-08-18T01:44:17;100215.16;;;21.60;75.82
13968;BME280;39536;52.198;9.920;2022-08-18T01:46:43;100222.78;;;21.53;76.21
13968;BME280;39536;52.198;9.920;2022-08-18T01:49:10;100217.81;;;21.60;76.32
13968;BME280;39536;52.198;9.920;2022-08-18T01:51:37;100222.78;;;21.74;75.83
13968;BME280;39536;52.198;9.920;2022-08-18T01:54:06;100224.34;;;21.77;75.91
13968;BME280;39536;52.198;9.920;2022-08-18T01:56:34;100218.50;;;21.83;75.50
13968;BME280;39536;52.198;9.920;2022-08-18T01:59:03;100214.03;;;21.83;75.67
13968;BME280;39536;52.198;9.920;2022-08-18T02:01:30;100218.09;;;21.78;75.74
13968;BME280;39536;52.198;9.920;2022-08-18T02:03:58;100215.44;;;21.78;75.82
13968;BME280;39536;52.198;9.920;2022-08-18T02:06:25;100221.31;;;21.81;75.83
13968;BME280;39536;52.198;9.920;2022-08-18T02:08:51;100227.31;;;21.83;75.99
13968;BME280;39536;52.198;9.920;2022-08-18T02:11:18;100220.78;;;21.87;75.73
13968;BME280;39536;52.198;9.920;2022-08-18T02:13:45;100221.47;;;21.89;76.28
13968;BME280;39536;52.198;9.920;2022-08-18T02:16:12;100223.03;;;21.92;76.28
13968;BME280;39536;52.198;9.920;2022-08-18T02:18:38;100219.09;;;21.86;76.62
13968;BME280;39536;52.198;9.920;2022-08-18T02:21:08;100225.16;;;21.77;77.92
13968;BME280;39536;52.198;9.920;2022-08-18T02:23:35;100217.81;;;21.60;79.29
13968;BME280;39536;52.198;9.920;2022-08-18T02:26:03;100215.03;;;21.40;80.49
13968;BME280;39536;52.198;9.920;2022-08-18T02:28:29;100225.00;;;21.37;81.00
13968;BME280;39536;52.198;9.920;2022-08-18T02:31:02;100223.88;;;21.51;80.79
13968;BME280;39536;52.198;9.920;2022-08-18T02:33:29;100223.38;;;21.57;80.38
13968;BME280;39536;52.198;9.920;2022-08-18T02:35:55;100223.22;;;21.58;80.74
13968;BME280;39536;52.198;9.920;2022-08-18T02:38:21;100221.38;;;21.70;80.42
13968;BME280;39536;52.198;9.920;2022-08-18T02:40:53;100229.41;;;21.59;80.83
13968;BME280;39536;52.198;9.920;2022-08-18T02:43:20;100225.38;;;21.43;81.88
13968;BME280;39536;52.198;9.920;2022-08-18T02:45:46;100225.03;;;21.26;82.40
13968;BME280;39536;52.198;9.920;2022-08-18T02:48:14;100220.81;;;21.34;82.34
13968;BME280;39536;52.198;9.920;2022-08-18T02:50:40;100224.19;;;21.36;82.20
13968;BME280;39536;52.198;9.920;2022-08-18T02:53:11;100224.38;;;21.44;81.77
13968;BME280;39536;52.198;9.920;2022-08-18T02:55:39;100224.13;;;21.48;81.51
13968;BME280;39536;52.198;9.920;2022-08-18T02:58:06;100223.38;;;21.25;82.09
13968;BME280;39536;52.198;9.920;2022-08-18T03:00:32;100220.09;;;21.21;82.84
13968;BME280;39536;52.198;9.920;2022-08-18T03:02:59;100216.03;;;21.17;82.68
13968;BME280;39536;52.198;9.920;2022-08-18T03:05:27;100221.66;;;21.23;82.37
13968;BME280;39536;52.198;9.920;2022-08-18T03:07:54;100217.78;;;21.28;82.25
13968;BME280;39536;52.198;9.920;2022-08-18T03:10:21;100227.19;;;21.32;81.90
13968;BME280;39536;52.198;9.920;2022-08-18T03:12:47;100232.13;;;21.36;81.83
13968;BME280;39536;52.198;9.920;2022-08-18T03:15:13;100233.44;;;21.42;81.51
13968;BME280;39536;52.198;9.920;2022-08-18T03:17:40;100227.69;;;21.26;82.30
13968;BME280;39536;52.198;9.920;2022-08-18T03:20:07;100234.72;;;21.15;82.73
13968;BME280;39536;52.198;9.920;2022-08-18T03:22:35;100228.75;;;20.91;84.01
13968;BME280;39536;52.198;9.920;2022-08-18T03:25:03;100234.41;;;20.86;84.69
13968;BME280;39536;52.198;9.920;2022-08-18T03:27:29;100226.97;;;20.80;85.16
13968;BME280;39536;52.198;9.920;2022-08-18T03:29:56;100229.38;;;20.83;85.31
13968;BME280;39536;52.198;9.920;2022-08-18T03:32:23;100226.28;;;20.78;85.48
13968;BME280;39536;52.198;9.920;2022-08-18T03:34:49;100223.97;;;20.73;85.74
13968;BME280;39536;52.198;9.920;2022-08-18T03:37:16;100219.28;;;20.77;85.71
13968;BME280;39536;52.198;9.920;2022-08-18T03:39:43;100226.28;;;20.78;85.84
13968;BME280;39536;52.198;9.920;2022-08-18T03:42:10;100223.72;;;20.76;85.57
13968;BME280;39536;52.198;9.920;2022-08-18T03:44:37;100228.78;;;20.68;85.74
13968;BME280;39536;52.198;9.920;2022-08-18T03:47:06;100219.03;;;20.80;85.72
13968;BME280;39536;52.198;9.920;2022-08-18T03:49:33;100223.22;;;20.83;85.52
13968;BME280;39536;52.198;9.920;2022-08-18T03:52:00;100235.88;;;20.90;84.90
13968;BME280;39536;52.198;9.920;2022-08-18T03:54:28;100229.81;;;20.99;84.37
13968;BME280;39536;52.198;9.920;2022-08-18T03:56:57;100236.06;;;21.10;84.02
13968;BME280;39536;52.198;9.920;2022-08-18T03:59:25;100232.94;;;21.05;83.88
13968;BME280;39536;52.198;9.920;2022-08-18T04:01:53;100236.66;;;21.13;83.64
13968;BME280;39536;52.198;9.920;2022-08-18T04:04:22;100242.53;;;21.17;83.59
13968;BME280;39536;52.198;9.920;2022-08-18T04:06:51;100241.72;;;21.05;83.92
13968;BME280;39536;52.198;9.920;2022-08-18T04:09:20;100245.81;;;21.09;83.75
13968;BME280;39536;52.198;9.920;2022-08-18T04:11:46;100247.81;;;21.17;83.55
13968;BME280;39536;52.198;9.920;2022-08-18T04:14:16;100249.63;;;21.16;83.41
13968;BME280;39536;52.198;9.920;2022-08-18T04:16:44;100261.81;;;21.19;83.18
13968;BME280;39536;52.198;9.920;2022-08-18T04:19:11;100257.34;;;21.19;83.19
13968;BME280;39536;52.198;9.920;2022-08-18T04:21:40;100256.25;;;21.22;83.13
13968;BME280;39536;52.198;9.920;2022-08-18T04:24:07;100263.00;;;21.15;83.50
13968;BME280;39536;52.198;9.920;2022-08-18T04:26:36;100276.25;;;21.15;83.52
13968;BME280;39536;52.198;9.920;2022-08-18T04:29:04;100266.63;;;21.14;83.52
13968;BME280;39536;52.198;9.920;2022-08-18T04:31:32;100273.97;;;21.21;83.46
13968;BME280;39536;52.198;9.920;2022-08-18T04:34:00;100275.28;;;21.16;83.38
13968;BME280;39536;52.198;9.920;2022-08-18T04:36:29;100277.84;;;21.06;84.05
13968;BME280;39536;52.198;9.920;2022-08-18T04:38:56;100276.13;;;21.16;83.81
13968;BME280;39536;52.198;9.920;2022-08-18T04:41:24;100273.59;;;21.15;83.63
13968;BME280;39536;52.198;9.920;2022-08-18T04:43:52;100278.69;;;21.07;84.07
13968;BME280;39536;52.198;9.920;2022-08-18T04:46:19;100268.94;;;20.96;84.51
13968;BME280;39536;52.198;9.920;2022-08-18T04:48:47;100273.53;;;20.94;84.68
13968;BME280;39536;52.198;9.920;2022-08-18T04:51:15;100269.91;;;20.95;84.50
13968;BME280;39536;52.198;9.920;2022-08-18T04:53:43;100264.63;;;20.95;84.85
13968;BME280;39536;52.198;9.920;2022-08-18T04:56:17;100263.66;;;20.96;84.50
13968;BME280;39536;52.198;9.920;2022-08-18T04:58:50;100260.75;;;20.99;84.38
13968;BME280;39536;52.198;9.920;2022-08-18T05:01:17;100270.06;;;20.82;85.42
13968;BME280;39536;52.198;9.920;2022-08-18T05:03:44;100269.34;;;20.69;86.18
13968;BME280;39536;52.198;9.920;2022-08-18T05:06:12;100272.22;;;20.77;86.36
13968;BME280;39536;52.198;9.920;2022-08-18T05:08:38;100271.47;;;20.86;85.91
13968;BME280;39536;52.198;9.920;2022-08-18T05:11:05;100269.56;;;20.77;86.05
13968;BME280;39536;52.198;9.920;2022-08-18T05:13:31;100272.00;;;20.69;86.39
13968;BME280;39536;52.198;9.920;2022-08-18T05:15:59;100278.47;;;20.65;87.13
13968;BME280;39536;52.198;9.920;2022-08-18T05:18:28;100278.72;;;20.62;87.41
13968;BME280;39536;52.198;9.920;2022-08-18T05:20:56;100277.88;;;20.61;87.49
13968;BME280;39536;52.198;9.920;2022-08-18T05:23:24;100280.19;;;20.66;87.82
13968;BME280;39536;52.198;9.920;2022-08-18T05:25:56;100277.88;;;20.61;87.87
13968;BME280;39536;52.198;9.920;2022-08-18T05:28:23;100274.16;;;20.64;87.86
13968;BME280;39536;52.198;9.920;2022-08-18T05:30:49;100284.03;;;20.73;87.64
13968;BME280;39536;52.198;9.920;2022-08-18T05:33:15;100271.72;;;20.83;87.18
13968;BME280;39536;52.198;9.920;2022-08-18T05:35:43;100292.91;;;20.83;86.85
13968;BME280;39536;52.198;9.920;2022-08-18T05:38:25;100282.91;;;20.87;86.27
13968;BME280;39536;52.198;9.920;2022-08-18T05:41:03;100280.13;;;20.99;85.72
13968;BME280;39536;52.198;9.920;2022-08-18T05:43:31;100285.16;;;21.03;85.51
13968;BME280;39536;52.198;9.920;2022-08-18T05:45:59;100294.56;;;21.07;85.74
13968;BME280;39536;52.198;9.920;2022-08-18T05:48:26;100298.06;;;20.96;85.83
13968;BME280;39536;52.198;9.920;2022-08-18T05:50:54;100296.75;;;21.02;85.95
13968;BME280;39536;52.198;9.920;2022-08-18T05:53:21;100299.88;;;20.95;86.13
13968;BME280;39536;52.198;9.920;2022-08-18T05:56:10;100290.72;;;21.11;85.89
13968;BME280;39536;52.198;9.920;2022-08-18T05:58:56;100297.56;;;21.25;85.18
13968;BME280;39536;52.198;9.920;2022-08-18T06:01:27;100300.31;;;21.23;84.89
13968;BME280;39536;52.198;9.920;2022-08-18T06:04:01;100304.19;;;21.19;84.98
13968;BME280;39536;52.198;9.920;2022-08-18T06:06:32;100299.53;;;21.00;85.96
13968;BME280;39536;52.198;9.920;2022-08-18T06:09:05;100300.94;;;21.15;86.56
13968;BME280;39536;52.198;9.920;2022-08-18T06:11:34;100300.44;;;21.21;85.16
13968;BME280;39536;52.198;9.920;2022-08-18T06:14:00;100310.56;;;21.16;85.64
13968;BME280;39536;52.198;9.920;2022-08-18T06:16:41;100297.19;;;21.18;86.28
13968;BME280;39536;52.198;9.920;2022-08-18T06:19:24;100308.75;;;21.28;86.15
13968;BME280;39536;52.198;9.920;2022-08-18T06:22:01;100309.09;;;21.35;85.79
13968;BME280;39536;52.198;9.920;2022-08-18T06:24:35;100306.31;;;21.36;85.81
13968;BME280;39536;52.198;9.920;2022-08-18T06:27:11;100300.66;;;21.30;85.34
13968;BME280;39536;52.198;9.920;2022-08-18T06:29:50;100305.13;;;21.29;85.77
13968;BME280;39536;52.198;9.920;2022-08-18T06:32:30;100300.09;;;21.58;84.83
13968;BME280;39536;52.198;9.920;2022-08-18T06:35:09;100306.81;;;21.41;85.12
13968;BME280;39536;52.198;9.920;2022-08-18T06:37:41;100317.25;;;21.43;85.48
13968;BME280;39536;52.198;9.920;2022-08-18T06:40:22;100319.31;;;21.39;84.90
13968;BME280;39536;52.198;9.920;2022-08-18T06:42:50;100318.47;;;21.50;85.19
13968;BME280;39536;52.198;9.920;2022-08-18T06:45:18;100313.06;;;21.40;84.32
13968;BME280;39536;52.198;9.920;2022-08-18T06:47:59;100324.84;;;21.48;84.26
13968;BME280;39536;52.198;9.920;2022-08-18T06:50:33;100327.97;;;21.53;83.88
13968;BME280;39536;52.198;9.920;2022-08-18T06:53:05;100326.75;;;21.57;83.41
13968;BME280;39536;52.198;9.920;2022-08-18T06:55:33;100333.97;;;21.55;83.31
13968;BME280;39536;52.198;9.920;2022-08-18T06:58:05;100332.63;;;21.60;83.23
13968;BME280;39536;52.198;9.920;2022-08-18T07:00:34;100334.19;;;21.63;82.66
13968;BME280;39536;52.198;9.920;2022-08-18T07:03:05;100329.31;;;21.47;83.00
13968;BME280;39536;52.198;9.920;2022-08-18T07:05:34;100330.28;;;21.35;83.82
13968;BME280;39536;52.198;9.920;2022-08-18T07:08:09;100341.13;;;21.43;84.23
13968;BME280;39536;52.198;9.920;2022-08-18T07:10:38;100345.72;;;21.41;83.11
13968;BME280;39536;52.198;9.920;2022-08-18T07:13:22;100339.06;;;21.24;82.73
13968;BME280;39536;52.198;9.920;2022-08-18T07:15:51;100342.69;;;21.34;82.93
13968;BME280;39536;52.198;9.920;2022-08-18T07:18:26;100343.66;;;21.44;82.60
13968;BME280;39536;52.198;9.920;2022-08-18T07:20:56;100341.97;;;21.43;83.15
13968;BME280;39536;52.198;9.920;2022-08-18T07:23:27;100342.50;;;21.70;81.92
13968;BME280;39536;52.198;9.920;2022-08-18T07:26:04;100344.59;;;21.87;80.88
13968;BME280;39536;52.198;9.920;2022-08-18T07:28:35;100354.38;;;22.07;80.20
13968;BME280;39536;52.198;9.920;2022-08-18T07:31:12;100358.59;;;22.10;79.88
13968;BME280;39536;52.198;9.920;2022-08-18T07:33:40;100353.94;;;22.23;78.51
13968;BME280;39536;52.198;9.920;2022-08-18T07:36:09;100351.25;;;22.34;78.23
13968;BME280;39536;52.198;9.920;2022-08-18T07:38:39;100354.94;;;22.43;78.28
13968;BME280;39536;52.198;9.920;2022-08-18T07:41:12;100351.81;;;22.59;78.26
13968;BME280;39536;52.198;9.920;2022-08-18T07:43:48;100365.69;;;22.72;76.94
13968;BME280;39536;52.198;9.920;2022-08-18T07:46:21;100358.44;;;22.74;75.86
13968;BME280;39536;52.198;9.920;2022-08-18T07:48:49;100355.41;;;22.58;76.30
13968;BME280;39536;52.198;9.920;2022-08-18T07:51:21;100364.81;;;22.62;76.36
13968;BME280;39536;52.198;9.920;2022-08-18T07:53:52;100364.34;;;22.57;76.90
13968;BME280;39536;52.198;9.920;2022-08-18T07:56:30;100359.94;;;22.67;76.90
13968;BME280;39536;52.198;9.920;2022-08-18T07:59:03;100359.25;;;22.65;77.36
13968;BME280;39536;52.198;9.920;2022-08-18T08:01:37;100366.19;;;22.56;77.66
13968;BME280;39536;52.198;9.920;2022-08-18T08:04:12;100361.13;;;22.53;77.55
13968;BME280;39536;52.198;9.920;2022-08-18T08:06:42;100366.06;;;22.37;78.05
13968;BME280;39536;52.198;9.920;2022-08-18T08:09:17;100354.28;;;22.30;77.95
13968;BME280;39536;52.198;9.920;2022-08-18T08:11:52;100356.16;;;22.18;77.61
13968;BME280;39536;52.198;9.920;2022-08-18T08:14:34;100352.59;;;22.29;76.73
13968;BME280;39536;52.198;9.920;2022-08-18T08:17:09;100352.28;;;22.22;76.77
13968;BME280;39536;52.198;9.920;2022-08-18T08:19:49;100361.25;;;22.10;77.47
13968;BME280;39536;52.198;9.920;2022-08-18T08:22:21;100371.44;;;22.47;76.63
13968;BME280;39536;52.198;9.920;2022-08-18T08:24:58;100372.19;;;22.58;75.33
13968;BME280;39536;52.198;9.920;2022-08-18T08:27:37;100370.13;;;22.62;74.64
13968;BME280;39536;52.198;9.920;2022-08-18T08:30:11;100354.94;;;22.74;74.03
13968;BME280;39536;52.198;9.920;2022-08-18T08:32:44;100358.91;;;22.89;74.22
13968;BME280;39536;52.198;9.920;2022-08-18T08:35:16;100354.28;;;23.12;73.30
13968;BME280;39536;52.198;9.920;2022-08-18T08:37:49;100369.25;;;23.13;72.11
13968;BME280;39536;52.198;9.920;2022-08-18T08:40:19;100372.31;;;23.09;71.93
13968;BME280;39536;52.198;9.920;2022-08-18T08:42:52;100374.28;;;22.86;72.78
13968;BME280;39536;52.198;9.920;2022-08-18T08:45:25;100366.03;;;22.89;73.45
13968;BME280;39536;52.198;9.920;2022-08-18T08:47:58;100361.63;;;22.99;73.95
13968;BME280;39536;52.198;9.920;2022-08-18T08:50:29;100381.78;;;23.01;74.09
13968;BME280;39536;52.198;9.920;2022-08-18T08:53:00;100365.84;;;23.01;74.38
13968;BME280;39536;52.198;9.920;2022-08-18T08:55:30;100371.16;;;23.01;75.36
13968;BME280;39536;52.198;9.920;2022-08-18T08:58:07;100355.97;;;22.92;75.14
13968;BME280;39536;52.198;9.920;2022-08-18T09:00:39;100363.72;;;22.95;75.29
13968;BME280;39536;52.198;9.920;2022-08-18T09:03:20;100358.97;;;22.99;75.51
13968;BME280;39536;52.198;9.920;2022-08-18T09:05:51;100358.06;;;22.89;75.24
13968;BME280;39536;52.198;9.920;2022-08-18T09:09:03;100355.66;;;23.07;75.61
13968;BME280;39536;52.198;9.920;2022-08-18T09:12:07;100363.81;;;23.15;74.86
13968;BME280;39536;52.198;9.920;2022-08-18T09:18:02;100371.03;;;23.03;74.62
13968;BME280;39536;52.198;9.920;2022-08-18T09:20:47;100374.16;;;23.18;73.85
13968;BME280;39536;52.198;9.920;2022-08-18T09:23:17;100361.84;;;23.17;73.54
13968;BME280;39536;52.198;9.920;2022-08-18T09:25:47;100379.03;;;23.13;74.40
13968;BME280;39536;52.198;9.920;2022-08-18T09:28:15;100384.69;;;23.39;73.28
13968;BME280;39536;52.198;9.920;2022-08-18T09:30:46;100385.69;;;23.38;73.45
13968;BME280;39536;52.198;9.920;2022-08-18T09:33:23;100385.69;;;23.38;72.67
13968;BME280;39536;52.198;9.920;2022-08-18T09:36:16;100383.41;;;23.83;71.73
13968;BME280;39536;52.198;9.920;2022-08-18T09:38:49;100371.34;;;23.69;70.84
13968;BME280;39536;52.198;9.920;2022-08-18T09:41:50;100384.25;;;23.93;69.77
13968;BME280;39536;52.198;9.920;2022-08-18T09:44:57;100385.59;;;23.68;70.66
13968;BME280;39536;52.198;9.920;2022-08-18T09:47:57;100381.88;;;23.81;71.59
13968;BME280;39536;52.198;9.920;2022-08-18T09:50:37;100384.25;;;24.03;69.66
13968;BME280;39536;52.198;9.920;2022-08-18T09:53:18;100388.84;;;24.30;68.18
13968;BME280;39536;52.198;9.920;2022-08-18T09:55:56;100389.56;;;24.03;68.54
13968;BME280;39536;52.198;9.920;2022-08-18T09:58:50;100385.78;;;23.86;69.45
13968;BME280;39536;52.198;9.920;2022-08-18T10:01:38;100380.59;;;23.85;69.80
13968;BME280;39536;52.198;9.920;2022-08-18T10:04:25;100386.06;;;24.12;69.08
13968;BME280;39536;52.198;9.920;2022-08-18T10:06:53;100383.25;;;24.04;67.75
13968;BME280;39536;52.198;9.920;2022-08-18T10:09:43;100381.56;;;24.23;68.32
13968;BME280;39536;52.198;9.920;2022-08-18T10:15:17;100386.91;;;24.79;66.18
13968;BME280;39536;52.198;9.920;2022-08-18T10:17:55;100381.59;;;24.79;65.07
13968;BME280;39536;52.198;9.920;2022-08-18T10:20:35;100382.50;;;24.60;65.03
13968;BME280;39536;52.198;9.920;2022-08-18T10:23:07;100378.44;;;24.56;65.25
13968;BME280;39536;52.198;9.920;2022-08-18T10:25:37;100383.66;;;24.29;65.64
13968;BME280;39536;52.198;9.920;2022-08-18T10:28:05;100379.59;;;24.25;66.38
13968;BME280;39536;52.198;9.920;2022-08-18T10:31:00;100381.97;;;24.47;66.18
13968;BME280;39536;52.198;9.920;2022-08-18T10:36:36;100375.44;;;25.06;63.77
13968;BME280;39536;52.198;9.920;2022-08-18T10:39:06;100375.31;;;25.18;63.07
13968;BME280;39536;52.198;9.920;2022-08-18T10:41:36;100369.94;;;25.45;61.60
13968;BME280;39536;52.198;9.920;2022-08-18T10:44:04;100361.56;;;25.76;60.91
13968;BME280;39536;52.198;9.920;2022-08-18T10:46:33;100365.47;;;26.17;59.60
13968;BME280;39536;52.198;9.920;2022-08-18T10:49:06;100362.03;;;26.07;60.40
13968;BME280;39536;52.198;9.920;2022-08-18T10:52:16;100380.84;;;25.70;61.13
13968;BME280;39536;52.198;9.920;2022-08-18T10:55:01;100382.81;;;25.50;61.50
13968;BME280;39536;52.198;9.920;2022-08-18T10:57:38;100377.66;;;25.48;61.92
13968;BME280;39536;52.198;9.920;2022-08-18T11:00:17;100382.78;;;25.77;60.72
13968;BME280;39536;52.198;9.920;2022-08-18T11:02:56;100377.00;;;26.00;60.32
13968;BME280;39536;52.198;9.920;2022-08-18T11:05:28;100372.41;;;26.10;59.08
13968;BME280;39536;52.198;9.920;2022-08-18T11:07:58;100377.41;;;26.31;59.45
13968;BME280;39536;52.198;9.920;2022-08-18T11:10:37;100388.28;;;26.12;59.51
13968;BME280;39536;52.198;9.920;2022-08-18T11:13:09;100375.94;;;25.93;60.19
13968;BME280;39536;52.198;9.920;2022-08-18T11:15:48;100375.75;;;26.12;59.95
13968;BME280;39536;52.198;9.920;2022-08-18T11:18:28;100365.34;;;26.45;59.09
13968;BME280;39536;52.198;9.920;2022-08-18T11:21:23;100365.06;;;26.82;58.37
13968;BME280;39536;52.198;9.920;2022-08-18T11:24:09;100361.84;;;26.79;58.16
13968;BME280;39536;52.198;9.920;2022-08-18T11:26:39;100356.31;;;26.72;57.28
13968;BME280;39536;52.198;9.920;2022-08-18T11:29:27;100361.66;;;26.72;57.43
13968;BME280;39536;52.198;9.920;2022-08-18T11:31:57;100358.91;;;26.12;59.40
13968;BME280;39536;52.198;9.920;2022-08-18T11:34:29;100358.41;;;25.90;59.29
13968;BME280;39536;52.198;9.920;2022-08-18T11:36:58;100353.78;;;26.18;58.93
13968;BME280;39536;52.198;9.920;2022-08-18T11:39:25;100360.53;;;26.48;58.19
13968;BME280;39536;52.198;9.920;2022-08-18T11:41:53;100353.38;;;26.57;57.79
13968;BME280;39536;52.198;9.920;2022-08-18T11:44:23;100346.38;;;26.56;56.73
13968;BME280;39536;52.198;9.920;2022-08-18T11:46:53;100349.06;;;26.56;57.42
13968;BME280;39536;52.198;9.920;2022-08-18T11:49:28;100332.75;;;26.67;57.25
13968;BME280;39536;52.198;9.920;2022-08-18T11:51:58;100341.09;;;26.64;57.57
13968;BME280;39536;52.198;9.920;2022-08-18T11:54:35;100319.75;;;26.46;56.80
13968;BME280;39536;52.198;9.920;2022-08-18T11:57:39;100341.44;;;26.69;56.27
13968;BME280;39536;52.198;9.920;2022-08-18T12:00:40;100320.84;;;26.96;56.19
13968;BME280;39536;52.198;9.920;2022-08-18T12:03:15;100323.34;;;26.98;55.35
13968;BME280;39536;52.198;9.920;2022-08-18T12:05:46;100313.59;;;27.14;55.31
13968;BME280;39536;52.198;9.920;2022-08-18T12:08:31;100317.19;;;27.05;55.30
13968;BME280;39536;52.198;9.920;2022-08-18T12:11:13;100314.69;;;27.04;56.16
13968;BME280;39536;52.198;9.920;2022-08-18T12:13:44;100308.69;;;27.02;56.75
13968;BME280;39536;52.198;9.920;2022-08-18T12:16:14;100305.53;;;26.72;56.94
13968;BME280;39536;52.198;9.920;2022-08-18T12:18:41;100308.38;;;26.44;57.32
13968;BME280;39536;52.198;9.920;2022-08-18T12:21:08;100320.28;;;26.24;58.09
13968;BME280;39536;52.198;9.920;2022-08-18T12:23:38;100316.41;;;26.18;56.95
13968;BME280;39536;52.198;9.920;2022-08-18T12:26:06;100314.94;;;26.24;56.68
13968;BME280;39536;52.198;9.920;2022-08-18T12:28:33;100320.28;;;26.24;56.75
13968;BME280;39536;52.198;9.920;2022-08-18T12:31:15;100314.31;;;26.56;56.72
13968;BME280;39536;52.198;9.920;2022-08-18T12:33:41;100327.75;;;26.46;57.35
13968;BME280;39536;52.198;9.920;2022-08-18T12:36:08;100323.56;;;26.44;57.21
13968;BME280;39536;52.198;9.920;2022-08-18T12:38:34;100324.19;;;26.38;57.51
13968;BME280;39536;52.198;9.920;2022-08-18T12:41:01;100323.16;;;26.31;58.02
13968;BME280;39536;52.198;9.920;2022-08-18T12:43:29;100322.88;;;26.16;58.01
13968;BME280;39536;52.198;9.920;2022-08-18T12:45:57;100317.84;;;26.13;58.37
13968;BME280;39536;52.198;9.920;2022-08-18T12:48:27;100324.91;;;26.14;58.56
13968;BME280;39536;52.198;9.920;2022-08-18T12:50:56;100324.72;;;26.41;58.21
13968;BME280;39536;52.198;9.920;2022-08-18T12:53:22;100318.59;;;26.23;58.31
13968;BME280;39536;52.198;9.920;2022-08-18T12:55:50;100315.25;;;26.21;58.25
13968;BME280;39536;52.198;9.920;2022-08-18T12:58:16;100311.56;;;26.22;58.28
13968;BME280;39536;52.198;9.920;2022-08-18T13:00:43;100313.53;;;26.12;58.56
13968;BME280;39536;52.198;9.920;2022-08-18T13:03:10;100301.19;;;25.93;58.97
13968;BME280;39536;52.198;9.920;2022-08-18T13:05:38;100301.13;;;25.85;59.29
13968;BME280;39536;52.198;9.920;2022-08-18T13:08:10;100302.13;;;25.84;59.48
13968;BME280;39536;52.198;9.920;2022-08-18T13:10:39;100305.16;;;25.89;59.33
13968;BME280;39536;52.198;9.920;2022-08-18T13:13:05;100302.47;;;26.07;58.80
13968;BME280;39536;52.198;9.920;2022-08-18T13:15:33;100307.44;;;26.01;59.10
13968;BME280;39536;52.198;9.920;2022-08-18T13:18:00;100310.13;;;26.01;58.59
13968;BME280;39536;52.198;9.920;2022-08-18T13:20:28;100318.50;;;25.89;58.79
13968;BME280;39536;52.198;9.920;2022-08-18T13:22:56;100307.69;;;25.90;58.95
13968;BME280;39536;52.198;9.920;2022-08-18T13:25:23;100304.63;;;25.85;58.45
13968;BME280;39536;52.198;9.920;2022-08-18T13:27:49;100309.22;;;25.93;58.53